sensor_id;sensor_type;location;lat;lon;timestamp;P1;durP1;ratioP1;P2;durP2;ratioP2
2996;SDS011;1508;48.744;9.110;2022-07-06T00:01:38;2.80;;;2.50;;
2996;SDS011;1508;48.744;9.110;2022-07-06T00:04:24;2.97;;;2.30;;
2996;SDS011;1508;48.744;9.110;2022-07-06T00:07:10;4.90;;;2.07;;
2996;SDS011;1508;48.744;9.110;2022-07-06T00:09:56;2.57;;;2.20;;
2996;SDS011;1508;48.744;9.110;2022-07-06T00:12:42;5.00;;;3.70;;
2996;SDS011;1508;48.744;9.110;2022-07-06T00:15:28;3.93;;;2.63;;
2996;SDS011;1508;48.744;9.110;2022-07-06T00:18:14;3.23;;;2.23;;
2996;SDS011;1508;48.744;9.110;2022-07-06T00:20:59;3.10;;;2.40;;
2996;SDS011;1508;48.744;9.110;2022-07-06T00:23:45;3.00;;;2.30;;
2996;SDS011;1508;48.744;9.110;2022-07-06T00:26:31;3.43;;;2.90;;
2996;SDS011;1508;48.744;9.110;2022-07-06T00:29:17;3.00;;;2.80;;
2996;SDS011;1508;48.744;9.110;2022-07-06T00:32:03;2.90;;;2.20;;
2996;SDS011;1508;48.744;9.110;2022-07-06T00:34:49;4.27;;;2.40;;
2996;SDS011;1508;48.744;9.110;2022-07-06T00:37:35;4.90;;;2.30;;
2996;SDS011;1508;48.744;9.110;2022-07-06T00:40:21;3.00;;;2.33;;
2996;SDS011;1508;48.744;9.110;2022-07-06T00:43:07;2.60;;;2.23;;
2996;SDS011;1508;48.744;9.110;2022-07-06T00:45:53;4.77;;;2.60;;
2996;SDS011;1508;48.744;9.110;2022-07-06T00:48:39;3.40;;;3.07;;
2996;SDS011;1508;48.744;9.110;2022-07-06T00:51:26;4.20;;;2.60;;
2996;SDS011;1508;48.744;9.110;2022-07-06T00:54:14;5.93;;;2.90;;
2996;SDS011;1508;48.744;9.110;2022-07-06T00:57:00;3.43;;;2.70;;
2996;SDS011;1508;48.744;9.110;2022-07-06T00:59:46;3.90;;;2.20;;
2996;SDS011;1508;48.744;9.110;2022-07-06T01:02:32;3.03;;;2.23;;
2996;SDS011;1508;48.744;9.110;2022-07-06T01:05:19;3.63;;;3.33;;
2996;SDS011;1508;48.744;9.110;2022-07-06T01:08:05;4.43;;;2.83;;
2996;SDS011;1508;48.744;9.110;2022-07-06T01:10:51;4.47;;;2.40;;
2996;SDS011;1508;48.744;9.110;2022-07-06T01:13:37;4.83;;;3.00;;
2996;SDS011;1508;48.744;9.110;2022-07-06T01:16:24;2.73;;;2.50;;
2996;SDS011;1508;48.744;9.110;2022-07-06T01:19:10;4.13;;;3.10;;
2996;SDS011;1508;48.744;9.110;2022-07-06T01:21:55;6.03;;;3.03;;
2996;SDS011;1508;48.744;9.110;2022-07-06T01:24:41;3.40;;;3.00;;
2996;SDS011;1508;48.744;9.110;2022-07-06T01:27:27;7.70;;;2.60;;
2996;SDS011;1508;48.744;9.110;2022-07-06T01:30:14;5.80;;;2.50;;
2996;SDS011;1508;48.744;9.110;2022-07-06T01:33:02;6.97;;;2.53;;
2996;SDS011;1508;48.744;9.110;2022-07-06T01:35:48;4.47;;;2.60;;
2996;SDS011;1508;48.744;9.110;2022-07-06T01:38:51;3.10;;;2.67;;
2996;SDS011;1508;48.744;9.110;2022-07-06T01:41:41;4.33;;;2.97;;
2996;SDS011;1508;48.744;9.110;2022-07-06T01:44:27;4.83;;;2.73;;
2996;SDS011;1508;48.744;9.110;2022-07-06T01:47:13;3.80;;;2.57;;
2996;SDS011;1508;48.744;9.110;2022-07-06T01:49:59;2.73;;;2.53;;
2996;SDS011;1508;48.744;9.110;2022-07-06T01:52:46;6.47;;;2.80;;
2996;SDS011;1508;48.744;9.110;2022-07-06T01:55:32;4.57;;;2.70;;
2996;SDS011;1508;48.744;9.110;2022-07-06T01:58:17;4.60;;;2.73;;
2996;SDS011;1508;48.744;9.110;2022-07-06T02:01:07;5.13;;;2.50;;
2996;SDS011;1508;48.744;9.110;2022-07-06T02:03:57;8.43;;;2.83;;
2996;SDS011;1508;48.744;9.110;2022-07-06T02:06:43;6.57;;;2.63;;
2996;SDS011;1508;48.744;9.110;2022-07-06T02:09:29;4.17;;;2.70;;
2996;SDS011;1508;48.744;9.110;2022-07-06T02:12:14;3.40;;;2.43;;
2996;SDS011;1508;48.744;9.110;2022-07-06T02:15:00;3.93;;;2.60;;
2996;SDS011;1508;48.744;9.110;2022-07-06T02:17:46;4.00;;;2.60;;
2996;SDS011;1508;48.744;9.110;2022-07-06T02:20:32;7.63;;;2.80;;
2996;SDS011;1508;48.744;9.110;2022-07-06T02:23:18;3.90;;;2.90;;
2996;SDS011;1508;48.744;9.110;2022-07-06T02:26:04;5.93;;;3.23;;
2996;SDS011;1508;48.744;9.110;2022-07-06T02:28:50;6.73;;;2.50;;
2996;SDS011;1508;48.744;9.110;2022-07-06T02:31:36;3.43;;;2.50;;
2996;SDS011;1508;48.744;9.110;2022-07-06T02:34:21;4.33;;;2.67;;
2996;SDS011;1508;48.744;9.110;2022-07-06T02:37:07;4.87;;;3.20;;
2996;SDS011;1508;48.744;9.110;2022-07-06T02:39:53;4.70;;;2.60;;
2996;SDS011;1508;48.744;9.110;2022-07-06T02:42:39;4.37;;;2.87;;
2996;SDS011;1508;48.744;9.110;2022-07-06T02:45:25;3.60;;;2.93;;
2996;SDS011;1508;48.744;9.110;2022-07-06T02:48:11;4.60;;;3.20;;
2996;SDS011;1508;48.744;9.110;2022-07-06T02:50:57;4.27;;;2.57;;
2996;SDS011;1508;48.744;9.110;2022-07-06T02:53:43;3.23;;;2.57;;
2996;SDS011;1508;48.744;9.110;2022-07-06T02:56:28;3.07;;;2.70;;
2996;SDS011;1508;48.744;9.110;2022-07-06T02:59:14;11.97;;;3.50;;
2996;SDS011;1508;48.744;9.110;2022-07-06T03:02:00;5.90;;;3.40;;
2996;SDS011;1508;48.744;9.110;2022-07-06T03:04:46;4.23;;;3.63;;
2996;SDS011;1508;48.744;9.110;2022-07-06T03:07:32;5.77;;;3.20;;
2996;SDS011;1508;48.744;9.110;2022-07-06T03:10:18;4.47;;;3.33;;
2996;SDS011;1508;48.744;9.110;2022-07-06T03:13:04;4.03;;;3.57;;
2996;SDS011;1508;48.744;9.110;2022-07-06T03:15:49;11.10;;;3.80;;
2996;SDS011;1508;48.744;9.110;2022-07-06T03:18:35;7.40;;;3.77;;
2996;SDS011;1508;48.744;9.110;2022-07-06T03:21:21;4.43;;;3.90;;
2996;SDS011;1508;48.744;9.110;2022-07-06T03:24:07;4.17;;;3.70;;
2996;SDS011;1508;48.744;9.110;2022-07-06T03:26:53;6.27;;;4.00;;
2996;SDS011;1508;48.744;9.110;2022-07-06T03:29:39;5.80;;;3.20;;
2996;SDS011;1508;48.744;9.110;2022-07-06T03:32:25;7.87;;;3.90;;
2996;SDS011;1508;48.744;9.110;2022-07-06T03:35:11;6.30;;;3.77;;
2996;SDS011;1508;48.744;9.110;2022-07-06T03:37:57;7.20;;;4.23;;
2996;SDS011;1508;48.744;9.110;2022-07-06T03:40:42;4.43;;;3.67;;
2996;SDS011;1508;48.744;9.110;2022-07-06T03:43:28;7.07;;;4.13;;
2996;SDS011;1508;48.744;9.110;2022-07-06T03:46:15;8.43;;;3.53;;
2996;SDS011;1508;48.744;9.110;2022-07-06T03:49:00;6.13;;;3.70;;
2996;SDS011;1508;48.744;9.110;2022-07-06T03:51:46;4.30;;;3.90;;
2996;SDS011;1508;48.744;9.110;2022-07-06T03:54:32;4.30;;;3.90;;
2996;SDS011;1508;48.744;9.110;2022-07-06T03:57:18;4.97;;;3.90;;
2996;SDS011;1508;48.744;9.110;2022-07-06T04:00:04;7.37;;;3.70;;
2996;SDS011;1508;48.744;9.110;2022-07-06T04:02:50;4.33;;;3.87;;
2996;SDS011;1508;48.744;9.110;2022-07-06T04:05:36;4.80;;;4.40;;
2996;SDS011;1508;48.744;9.110;2022-07-06T04:08:22;4.90;;;4.40;;
2996;SDS011;1508;48.744;9.110;2022-07-06T04:11:08;4.50;;;3.60;;
2996;SDS011;1508;48.744;9.110;2022-07-06T04:13:53;6.27;;;4.23;;
2996;SDS011;1508;48.744;9.110;2022-07-06T04:16:39;7.47;;;4.60;;
2996;SDS011;1508;48.744;9.110;2022-07-06T04:19:25;10.27;;;4.97;;
2996;SDS011;1508;48.744;9.110;2022-07-06T04:22:11;8.20;;;5.00;;
2996;SDS011;1508;48.744;9.110;2022-07-06T04:24:57;6.50;;;5.07;;
2996;SDS011;1508;48.744;9.110;2022-07-06T04:27:43;4.93;;;4.53;;
2996;SDS011;1508;48.744;9.110;2022-07-06T04:30:29;9.37;;;5.43;;
2996;SDS011;1508;48.744;9.110;2022-07-06T04:33:15;5.10;;;4.60;;
2996;SDS011;1508;48.744;9.110;2022-07-06T04:36:01;6.20;;;5.20;;
2996;SDS011;1508;48.744;9.110;2022-07-06T04:38:47;5.77;;;5.20;;
2996;SDS011;1508;48.744;9.110;2022-07-06T04:41:33;7.97;;;5.10;;
2996;SDS011;1508;48.744;9.110;2022-07-06T04:44:19;7.60;;;5.23;;
2996;SDS011;1508;48.744;9.110;2022-07-06T04:47:05;7.97;;;5.10;;
2996;SDS011;1508;48.744;9.110;2022-07-06T04:49:51;8.60;;;5.50;;
2996;SDS011;1508;48.744;9.110;2022-07-06T04:52:36;7.33;;;4.70;;
2996;SDS011;1508;48.744;9.110;2022-07-06T04:55:22;6.83;;;5.37;;
2996;SDS011;1508;48.744;9.110;2022-07-06T04:58:08;6.50;;;5.10;;
2996;SDS011;1508;48.744;9.110;2022-07-06T05:00:54;6.20;;;5.37;;
2996;SDS011;1508;48.744;9.110;2022-07-06T05:03:40;5.60;;;5.10;;
2996;SDS011;1508;48.744;9.110;2022-07-06T05:06:26;7.10;;;4.53;;
2996;SDS011;1508;48.744;9.110;2022-07-06T05:09:12;6.20;;;5.23;;
2996;SDS011;1508;48.744;9.110;2022-07-06T05:11:58;9.17;;;6.13;;
2996;SDS011;1508;48.744;9.110;2022-07-06T05:14:44;7.73;;;5.10;;
2996;SDS011;1508;48.744;9.110;2022-07-06T05:17:30;7.60;;;5.90;;
2996;SDS011;1508;48.744;9.110;2022-07-06T05:20:16;8.30;;;4.80;;
2996;SDS011;1508;48.744;9.110;2022-07-06T05:23:02;5.23;;;4.73;;
2996;SDS011;1508;48.744;9.110;2022-07-06T05:25:47;16.87;;;5.17;;
2996;SDS011;1508;48.744;9.110;2022-07-06T05:28:33;7.30;;;5.00;;
2996;SDS011;1508;48.744;9.110;2022-07-06T05:31:19;5.57;;;4.50;;
2996;SDS011;1508;48.744;9.110;2022-07-06T05:34:05;10.27;;;4.40;;
2996;SDS011;1508;48.744;9.110;2022-07-06T05:36:51;4.90;;;4.40;;
2996;SDS011;1508;48.744;9.110;2022-07-06T05:39:37;5.70;;;4.63;;
2996;SDS011;1508;48.744;9.110;2022-07-06T05:42:23;9.67;;;4.70;;
2996;SDS011;1508;48.744;9.110;2022-07-06T05:45:09;5.57;;;4.67;;
2996;SDS011;1508;48.744;9.110;2022-07-06T05:47:55;5.47;;;4.30;;
2996;SDS011;1508;48.744;9.110;2022-07-06T05:50:41;4.10;;;3.70;;
2996;SDS011;1508;48.744;9.110;2022-07-06T05:53:26;6.40;;;4.13;;
2996;SDS011;1508;48.744;9.110;2022-07-06T05:56:12;3.77;;;3.30;;
2996;SDS011;1508;48.744;9.110;2022-07-06T05:58:58;3.20;;;2.90;;
2996;SDS011;1508;48.744;9.110;2022-07-06T06:01:44;6.00;;;3.10;;
2996;SDS011;1508;48.744;9.110;2022-07-06T06:04:30;6.97;;;3.73;;
2996;SDS011;1508;48.744;9.110;2022-07-06T06:07:16;6.07;;;4.03;;
2996;SDS011;1508;48.744;9.110;2022-07-06T06:10:06;4.93;;;3.67;;
2996;SDS011;1508;48.744;9.110;2022-07-06T06:12:54;5.10;;;3.17;;
2996;SDS011;1508;48.744;9.110;2022-07-06T06:15:40;4.80;;;3.13;;
2996;SDS011;1508;48.744;9.110;2022-07-06T06:18:26;6.47;;;3.53;;
2996;SDS011;1508;48.744;9.110;2022-07-06T06:21:12;16.63;;;3.77;;
2996;SDS011;1508;48.744;9.110;2022-07-06T06:23:57;7.70;;;3.73;;
2996;SDS011;1508;48.744;9.110;2022-07-06T06:26:43;4.43;;;3.30;;
2996;SDS011;1508;48.744;9.110;2022-07-06T06:29:29;7.00;;;3.40;;
2996;SDS011;1508;48.744;9.110;2022-07-06T06:32:15;3.80;;;3.20;;
2996;SDS011;1508;48.744;9.110;2022-07-06T06:35:01;7.13;;;3.43;;
2996;SDS011;1508;48.744;9.110;2022-07-06T06:37:47;9.03;;;3.67;;
2996;SDS011;1508;48.744;9.110;2022-07-06T06:40:33;6.60;;;3.10;;
2996;SDS011;1508;48.744;9.110;2022-07-06T06:43:19;3.40;;;3.00;;
2996;SDS011;1508;48.744;9.110;2022-07-06T06:46:04;5.03;;;3.20;;
2996;SDS011;1508;48.744;9.110;2022-07-06T06:48:50;5.40;;;2.77;;
2996;SDS011;1508;48.744;9.110;2022-07-06T06:51:36;4.90;;;3.00;;
2996;SDS011;1508;48.744;9.110;2022-07-06T06:54:22;3.03;;;2.37;;
2996;SDS011;1508;48.744;9.110;2022-07-06T06:57:08;8.10;;;4.00;;
2996;SDS011;1508;48.744;9.110;2022-07-06T06:59:54;4.40;;;3.30;;
2996;SDS011;1508;48.744;9.110;2022-07-06T07:02:40;5.10;;;3.20;;
2996;SDS011;1508;48.744;9.110;2022-07-06T07:05:26;3.10;;;2.80;;
2996;SDS011;1508;48.744;9.110;2022-07-06T07:08:12;6.43;;;4.10;;
2996;SDS011;1508;48.744;9.110;2022-07-06T07:10:58;6.87;;;3.77;;
2996;SDS011;1508;48.744;9.110;2022-07-06T07:13:44;4.30;;;3.17;;
2996;SDS011;1508;48.744;9.110;2022-07-06T07:16:30;6.83;;;3.40;;
2996;SDS011;1508;48.744;9.110;2022-07-06T07:19:15;4.47;;;2.80;;
2996;SDS011;1508;48.744;9.110;2022-07-06T07:22:01;5.80;;;3.40;;
2996;SDS011;1508;48.744;9.110;2022-07-06T07:24:47;3.40;;;2.90;;
2996;SDS011;1508;48.744;9.110;2022-07-06T07:27:33;5.00;;;3.30;;
2996;SDS011;1508;48.744;9.110;2022-07-06T07:30:19;3.30;;;2.77;;
2996;SDS011;1508;48.744;9.110;2022-07-06T07:33:06;5.10;;;3.63;;
2996;SDS011;1508;48.744;9.110;2022-07-06T07:35:52;3.30;;;2.50;;
2996;SDS011;1508;48.744;9.110;2022-07-06T07:38:38;4.03;;;3.10;;
2996;SDS011;1508;48.744;9.110;2022-07-06T07:41:23;7.90;;;3.17;;
2996;SDS011;1508;48.744;9.110;2022-07-06T07:44:09;6.60;;;3.20;;
2996;SDS011;1508;48.744;9.110;2022-07-06T07:46:55;6.10;;;3.60;;
2996;SDS011;1508;48.744;9.110;2022-07-06T07:49:41;3.63;;;3.27;;
2996;SDS011;1508;48.744;9.110;2022-07-06T07:52:27;4.97;;;2.80;;
2996;SDS011;1508;48.744;9.110;2022-07-06T07:55:13;7.17;;;3.20;;
2996;SDS011;1508;48.744;9.110;2022-07-06T07:57:59;3.50;;;3.17;;
2996;SDS011;1508;48.744;9.110;2022-07-06T08:00:45;4.00;;;3.70;;
2996;SDS011;1508;48.744;9.110;2022-07-06T08:03:31;7.80;;;3.53;;
2996;SDS011;1508;48.744;9.110;2022-07-06T08:06:17;7.37;;;3.87;;
2996;SDS011;1508;48.744;9.110;2022-07-06T08:09:03;3.60;;;2.73;;
2996;SDS011;1508;48.744;9.110;2022-07-06T08:11:48;4.50;;;3.70;;
2996;SDS011;1508;48.744;9.110;2022-07-06T08:14:34;5.53;;;3.77;;
2996;SDS011;1508;48.744;9.110;2022-07-06T08:17:20;3.60;;;2.97;;
2996;SDS011;1508;48.744;9.110;2022-07-06T08:20:06;4.90;;;2.77;;
2996;SDS011;1508;48.744;9.110;2022-07-06T08:22:52;5.27;;;3.53;;
2996;SDS011;1508;48.744;9.110;2022-07-06T08:25:38;6.40;;;2.90;;
2996;SDS011;1508;48.744;9.110;2022-07-06T08:28:24;7.73;;;3.47;;
2996;SDS011;1508;48.744;9.110;2022-07-06T08:31:10;6.53;;;3.70;;
2996;SDS011;1508;48.744;9.110;2022-07-06T08:33:56;3.93;;;3.03;;
2996;SDS011;1508;48.744;9.110;2022-07-06T08:36:42;4.47;;;3.03;;
2996;SDS011;1508;48.744;9.110;2022-07-06T08:39:28;5.50;;;3.20;;
2996;SDS011;1508;48.744;9.110;2022-07-06T08:42:15;4.87;;;3.67;;
2996;SDS011;1508;48.744;9.110;2022-07-06T08:45:03;12.70;;;4.40;;
2996;SDS011;1508;48.744;9.110;2022-07-06T08:47:51;6.07;;;3.37;;
2996;SDS011;1508;48.744;9.110;2022-07-06T08:50:39;4.17;;;3.53;;
2996;SDS011;1508;48.744;9.110;2022-07-06T08:53:25;8.67;;;3.30;;
2996;SDS011;1508;48.744;9.110;2022-07-06T08:56:11;6.10;;;3.80;;
2996;SDS011;1508;48.744;9.110;2022-07-06T08:58:58;10.23;;;4.30;;
2996;SDS011;1508;48.744;9.110;2022-07-06T09:01:45;4.43;;;3.70;;
2996;SDS011;1508;48.744;9.110;2022-07-06T09:04:35;4.03;;;3.13;;
2996;SDS011;1508;48.744;9.110;2022-07-06T09:07:22;5.63;;;3.87;;
2996;SDS011;1508;48.744;9.110;2022-07-06T09:10:09;6.50;;;4.17;;
2996;SDS011;1508;48.744;9.110;2022-07-06T09:13:01;5.00;;;3.60;;
2996;SDS011;1508;48.744;9.110;2022-07-06T09:15:48;7.40;;;4.00;;
2996;SDS011;1508;48.744;9.110;2022-07-06T09:18:36;6.27;;;3.47;;
2996;SDS011;1508;48.744;9.110;2022-07-06T09:21:29;5.03;;;3.63;;
2996;SDS011;1508;48.744;9.110;2022-07-06T09:24:16;4.53;;;4.13;;
2996;SDS011;1508;48.744;9.110;2022-07-06T09:27:02;6.53;;;3.83;;
2996;SDS011;1508;48.744;9.110;2022-07-06T09:29:48;3.77;;;2.90;;
2996;SDS011;1508;48.744;9.110;2022-07-06T09:32:44;3.73;;;3.43;;
2996;SDS011;1508;48.744;9.110;2022-07-06T09:35:38;4.90;;;3.53;;
2996;SDS011;1508;48.744;9.110;2022-07-06T09:38:24;9.23;;;3.47;;
2996;SDS011;1508;48.744;9.110;2022-07-06T09:41:11;7.30;;;3.90;;
2996;SDS011;1508;48.744;9.110;2022-07-06T09:43:57;5.47;;;4.97;;
2996;SDS011;1508;48.744;9.110;2022-07-06T09:46:45;5.20;;;4.70;;
2996;SDS011;1508;48.744;9.110;2022-07-06T09:49:32;6.17;;;4.20;;
2996;SDS011;1508;48.744;9.110;2022-07-06T09:52:18;6.97;;;4.27;;
2996;SDS011;1508;48.744;9.110;2022-07-06T09:55:16;5.17;;;3.90;;
2996;SDS011;1508;48.744;9.110;2022-07-06T09:58:02;5.17;;;3.60;;
2996;SDS011;1508;48.744;9.110;2022-07-06T10:00:49;6.33;;;3.53;;
2996;SDS011;1508;48.744;9.110;2022-07-06T10:03:35;3.83;;;3.53;;
2996;SDS011;1508;48.744;9.110;2022-07-06T10:06:21;5.97;;;3.60;;
2996;SDS011;1508;48.744;9.110;2022-07-06T10:09:10;6.00;;;3.67;;
2996;SDS011;1508;48.744;9.110;2022-07-06T10:11:57;6.13;;;3.90;;
2996;SDS011;1508;48.744;9.110;2022-07-06T10:14:44;5.57;;;3.60;;
2996;SDS011;1508;48.744;9.110;2022-07-06T10:17:31;4.37;;;3.97;;
2996;SDS011;1508;48.744;9.110;2022-07-06T10:20:18;6.63;;;4.33;;
2996;SDS011;1508;48.744;9.110;2022-07-06T10:23:05;3.40;;;3.10;;
2996;SDS011;1508;48.744;9.110;2022-07-06T10:25:53;13.13;;;4.87;;
2996;SDS011;1508;48.744;9.110;2022-07-06T10:28:42;7.60;;;5.13;;
2996;SDS011;1508;48.744;9.110;2022-07-06T10:31:28;4.30;;;3.77;;
2996;SDS011;1508;48.744;9.110;2022-07-06T10:34:16;8.40;;;3.83;;
2996;SDS011;1508;48.744;9.110;2022-07-06T10:37:03;10.70;;;4.00;;
2996;SDS011;1508;48.744;9.110;2022-07-06T10:39:49;6.10;;;4.83;;
2996;SDS011;1508;48.744;9.110;2022-07-06T10:42:44;4.80;;;3.30;;
2996;SDS011;1508;48.744;9.110;2022-07-06T10:48:19;6.23;;;3.60;;
2996;SDS011;1508;48.744;9.110;2022-07-06T10:51:06;5.70;;;4.57;;
2996;SDS011;1508;48.744;9.110;2022-07-06T10:53:56;8.07;;;4.63;;
2996;SDS011;1508;48.744;9.110;2022-07-06T10:59:29;7.60;;;3.70;;
2996;SDS011;1508;48.744;9.110;2022-07-06T11:02:16;4.07;;;3.67;;
2996;SDS011;1508;48.744;9.110;2022-07-06T11:05:03;6.33;;;3.77;;
2996;SDS011;1508;48.744;9.110;2022-07-06T11:07:56;6.33;;;3.97;;
2996;SDS011;1508;48.744;9.110;2022-07-06T11:10:47;3.20;;;2.90;;
2996;SDS011;1508;48.744;9.110;2022-07-06T11:13:33;4.33;;;3.47;;
2996;SDS011;1508;48.744;9.110;2022-07-06T11:19:32;4.87;;;3.67;;
2996;SDS011;1508;48.744;9.110;2022-07-06T11:22:18;9.20;;;4.70;;
2996;SDS011;1508;48.744;9.110;2022-07-06T11:25:04;4.83;;;3.77;;
2996;SDS011;1508;48.744;9.110;2022-07-06T11:27:51;6.13;;;3.00;;
2996;SDS011;1508;48.744;9.110;2022-07-06T11:30:38;4.30;;;3.90;;
2996;SDS011;1508;48.744;9.110;2022-07-06T11:33:28;10.33;;;4.20;;
2996;SDS011;1508;48.744;9.110;2022-07-06T11:36:15;6.30;;;4.70;;
2996;SDS011;1508;48.744;9.110;2022-07-06T11:39:02;5.07;;;3.90;;
2996;SDS011;1508;48.744;9.110;2022-07-06T11:41:49;5.10;;;4.60;;
2996;SDS011;1508;48.744;9.110;2022-07-06T11:44:35;4.80;;;3.70;;
2996;SDS011;1508;48.744;9.110;2022-07-06T11:47:29;4.73;;;4.10;;
2996;SDS011;1508;48.744;9.110;2022-07-06T11:50:19;5.83;;;3.50;;
2996;SDS011;1508;48.744;9.110;2022-07-06T11:53:05;8.00;;;4.47;;
2996;SDS011;1508;48.744;9.110;2022-07-06T11:55:52;7.53;;;4.60;;
2996;SDS011;1508;48.744;9.110;2022-07-06T11:58:39;10.00;;;5.10;;
2996;SDS011;1508;48.744;9.110;2022-07-06T12:01:27;6.27;;;3.77;;
2996;SDS011;1508;48.744;9.110;2022-07-06T12:04:14;6.83;;;4.13;;
2996;SDS011;1508;48.744;9.110;2022-07-06T12:07:04;7.83;;;4.30;;
2996;SDS011;1508;48.744;9.110;2022-07-06T12:09:51;8.03;;;4.90;;
2996;SDS011;1508;48.744;9.110;2022-07-06T12:12:37;4.83;;;4.33;;
2996;SDS011;1508;48.744;9.110;2022-07-06T12:15:28;8.43;;;4.13;;
2996;SDS011;1508;48.744;9.110;2022-07-06T12:18:15;6.73;;;4.47;;
2996;SDS011;1508;48.744;9.110;2022-07-06T12:21:00;10.20;;;4.30;;
2996;SDS011;1508;48.744;9.110;2022-07-06T12:23:48;5.63;;;4.60;;
2996;SDS011;1508;48.744;9.110;2022-07-06T12:26:40;7.87;;;4.63;;
2996;SDS011;1508;48.744;9.110;2022-07-06T12:29:26;7.73;;;4.77;;
2996;SDS011;1508;48.744;9.110;2022-07-06T12:32:19;13.07;;;4.50;;
2996;SDS011;1508;48.744;9.110;2022-07-06T12:35:07;6.60;;;4.23;;
2996;SDS011;1508;48.744;9.110;2022-07-06T12:37:54;6.37;;;4.13;;
2996;SDS011;1508;48.744;9.110;2022-07-06T12:40:40;10.00;;;3.80;;
2996;SDS011;1508;48.744;9.110;2022-07-06T12:46:28;5.47;;;4.10;;
2996;SDS011;1508;48.744;9.110;2022-07-06T12:49:19;7.17;;;5.17;;
2996;SDS011;1508;48.744;9.110;2022-07-06T12:54:52;5.13;;;3.40;;
2996;SDS011;1508;48.744;9.110;2022-07-06T12:57:43;12.10;;;4.47;;
2996;SDS011;1508;48.744;9.110;2022-07-06T13:00:32;7.47;;;3.67;;
2996;SDS011;1508;48.744;9.110;2022-07-06T13:03:38;5.50;;;3.50;;
2996;SDS011;1508;48.744;9.110;2022-07-06T13:06:32;6.83;;;3.40;;
2996;SDS011;1508;48.744;9.110;2022-07-06T13:09:19;6.87;;;3.47;;
2996;SDS011;1508;48.744;9.110;2022-07-06T13:12:05;5.70;;;3.77;;
2996;SDS011;1508;48.744;9.110;2022-07-06T13:14:51;7.43;;;4.40;;
2996;SDS011;1508;48.744;9.110;2022-07-06T13:17:37;3.83;;;3.43;;
2996;SDS011;1508;48.744;9.110;2022-07-06T13:20:23;6.13;;;3.70;;
2996;SDS011;1508;48.744;9.110;2022-07-06T13:23:09;6.97;;;2.80;;
2996;SDS011;1508;48.744;9.110;2022-07-06T13:25:55;6.13;;;3.23;;
2996;SDS011;1508;48.744;9.110;2022-07-06T13:28:40;7.50;;;3.17;;
2996;SDS011;1508;48.744;9.110;2022-07-06T13:31:27;4.30;;;2.70;;
2996;SDS011;1508;48.744;9.110;2022-07-06T13:34:13;9.27;;;3.33;;
2996;SDS011;1508;48.744;9.110;2022-07-06T13:36:58;3.17;;;2.60;;
2996;SDS011;1508;48.744;9.110;2022-07-06T13:39:44;4.80;;;2.70;;
2996;SDS011;1508;48.744;9.110;2022-07-06T13:42:30;4.80;;;2.30;;
2996;SDS011;1508;48.744;9.110;2022-07-06T13:45:16;4.30;;;3.03;;
2996;SDS011;1508;48.744;9.110;2022-07-06T13:48:02;5.03;;;2.77;;
2996;SDS011;1508;48.744;9.110;2022-07-06T13:50:48;6.00;;;3.80;;
2996;SDS011;1508;48.744;9.110;2022-07-06T13:53:34;4.10;;;3.43;;
2996;SDS011;1508;48.744;9.110;2022-07-06T13:56:20;3.83;;;2.80;;
2996;SDS011;1508;48.744;9.110;2022-07-06T13:59:06;5.93;;;3.03;;
2996;SDS011;1508;48.744;9.110;2022-07-06T14:01:52;4.17;;;2.70;;
2996;SDS011;1508;48.744;9.110;2022-07-06T14:04:38;3.40;;;2.90;;
2996;SDS011;1508;48.744;9.110;2022-07-06T14:07:23;3.23;;;2.70;;
2996;SDS011;1508;48.744;9.110;2022-07-06T14:10:09;4.50;;;2.60;;
2996;SDS011;1508;48.744;9.110;2022-07-06T14:12:55;7.53;;;2.93;;
2996;SDS011;1508;48.744;9.110;2022-07-06T14:15:41;3.70;;;2.57;;
2996;SDS011;1508;48.744;9.110;2022-07-06T14:18:27;4.10;;;2.70;;
2996;SDS011;1508;48.744;9.110;2022-07-06T14:21:13;6.83;;;2.37;;
2996;SDS011;1508;48.744;9.110;2022-07-06T14:23:59;5.53;;;2.40;;
2996;SDS011;1508;48.744;9.110;2022-07-06T14:26:45;5.10;;;2.80;;
2996;SDS011;1508;48.744;9.110;2022-07-06T14:29:31;5.50;;;2.60;;
2996;SDS011;1508;48.744;9.110;2022-07-06T14:32:16;2.57;;;2.37;;
2996;SDS011;1508;48.744;9.110;2022-07-06T14:35:02;7.13;;;2.93;;
2996;SDS011;1508;48.744;9.110;2022-07-06T14:37:48;3.60;;;2.40;;
2996;SDS011;1508;48.744;9.110;2022-07-06T14:40:35;4.20;;;2.37;;
2996;SDS011;1508;48.744;9.110;2022-07-06T14:43:21;4.43;;;2.63;;
2996;SDS011;1508;48.744;9.110;2022-07-06T14:46:07;3.93;;;2.40;;
2996;SDS011;1508;48.744;9.110;2022-07-06T14:48:53;3.17;;;2.63;;
2996;SDS011;1508;48.744;9.110;2022-07-06T14:51:38;2.57;;;2.37;;
2996;SDS011;1508;48.744;9.110;2022-07-06T14:54:24;5.07;;;2.67;;
2996;SDS011;1508;48.744;9.110;2022-07-06T14:57:10;4.20;;;2.63;;
2996;SDS011;1508;48.744;9.110;2022-07-06T14:59:56;4.40;;;2.60;;
2996;SDS011;1508;48.744;9.110;2022-07-06T15:02:42;2.43;;;2.20;;
2996;SDS011;1508;48.744;9.110;2022-07-06T15:05:28;5.33;;;2.77;;
2996;SDS011;1508;48.744;9.110;2022-07-06T15:08:17;4.03;;;2.43;;
2996;SDS011;1508;48.744;9.110;2022-07-06T15:11:03;2.57;;;2.37;;
2996;SDS011;1508;48.744;9.110;2022-07-06T15:13:49;3.20;;;2.43;;
2996;SDS011;1508;48.744;9.110;2022-07-06T15:16:35;2.77;;;2.00;;
2996;SDS011;1508;48.744;9.110;2022-07-06T15:19:21;2.10;;;1.93;;
2996;SDS011;1508;48.744;9.110;2022-07-06T15:22:06;8.60;;;2.70;;
2996;SDS011;1508;48.744;9.110;2022-07-06T15:24:52;4.83;;;2.30;;
2996;SDS011;1508;48.744;9.110;2022-07-06T15:27:38;2.57;;;1.93;;
2996;SDS011;1508;48.744;9.110;2022-07-06T15:30:24;2.60;;;1.77;;
2996;SDS011;1508;48.744;9.110;2022-07-06T15:33:10;3.17;;;2.20;;
2996;SDS011;1508;48.744;9.110;2022-07-06T15:35:56;2.90;;;2.03;;
2996;SDS011;1508;48.744;9.110;2022-07-06T15:38:42;4.50;;;2.13;;
2996;SDS011;1508;48.744;9.110;2022-07-06T15:41:28;4.60;;;2.00;;
2996;SDS011;1508;48.744;9.110;2022-07-06T15:44:14;3.80;;;1.67;;
2996;SDS011;1508;48.744;9.110;2022-07-06T15:47:04;7.23;;;2.50;;
2996;SDS011;1508;48.744;9.110;2022-07-06T15:49:50;2.60;;;1.83;;
2996;SDS011;1508;48.744;9.110;2022-07-06T15:52:36;3.27;;;2.30;;
2996;SDS011;1508;48.744;9.110;2022-07-06T15:55:22;6.50;;;2.00;;
2996;SDS011;1508;48.744;9.110;2022-07-06T15:58:09;3.93;;;2.07;;
2996;SDS011;1508;48.744;9.110;2022-07-06T16:00:55;3.00;;;2.13;;
2996;SDS011;1508;48.744;9.110;2022-07-06T16:03:41;2.70;;;1.60;;
2996;SDS011;1508;48.744;9.110;2022-07-06T16:06:27;3.80;;;1.60;;
2996;SDS011;1508;48.744;9.110;2022-07-06T16:09:13;2.73;;;2.13;;
2996;SDS011;1508;48.744;9.110;2022-07-06T16:11:59;4.00;;;2.17;;
2996;SDS011;1508;48.744;9.110;2022-07-06T16:14:44;2.40;;;1.93;;
2996;SDS011;1508;48.744;9.110;2022-07-06T16:17:30;3.70;;;1.77;;
2996;SDS011;1508;48.744;9.110;2022-07-06T16:20:17;3.90;;;2.07;;
2996;SDS011;1508;48.744;9.110;2022-07-06T16:23:03;2.93;;;1.60;;
2996;SDS011;1508;48.744;9.110;2022-07-06T16:25:49;2.70;;;1.80;;
2996;SDS011;1508;48.744;9.110;2022-07-06T16:28:35;2.70;;;1.40;;
2996;SDS011;1508;48.744;9.110;2022-07-06T16:31:21;2.30;;;2.10;;
2996;SDS011;1508;48.744;9.110;2022-07-06T16:34:07;1.83;;;1.50;;
2996;SDS011;1508;48.744;9.110;2022-07-06T16:36:53;1.87;;;1.50;;
2996;SDS011;1508;48.744;9.110;2022-07-06T16:39:39;3.70;;;1.87;;
2996;SDS011;1508;48.744;9.110;2022-07-06T16:42:25;3.30;;;2.10;;
2996;SDS011;1508;48.744;9.110;2022-07-06T16:45:10;1.60;;;1.50;;
2996;SDS011;1508;48.744;9.110;2022-07-06T16:47:56;3.23;;;1.90;;
2996;SDS011;1508;48.744;9.110;2022-07-06T16:50:42;6.27;;;2.20;;
2996;SDS011;1508;48.744;9.110;2022-07-06T16:53:28;2.63;;;1.53;;
2996;SDS011;1508;48.744;9.110;2022-07-06T16:56:14;4.33;;;1.70;;
2996;SDS011;1508;48.744;9.110;2022-07-06T16:59:00;2.47;;;1.70;;
2996;SDS011;1508;48.744;9.110;2022-07-06T17:01:46;1.77;;;1.67;;
2996;SDS011;1508;48.744;9.110;2022-07-06T17:04:32;2.10;;;1.67;;
2996;SDS011;1508;48.744;9.110;2022-07-06T17:07:18;5.00;;;2.00;;
2996;SDS011;1508;48.744;9.110;2022-07-06T17:10:04;4.20;;;1.80;;
2996;SDS011;1508;48.744;9.110;2022-07-06T17:12:50;1.93;;;1.53;;
2996;SDS011;1508;48.744;9.110;2022-07-06T17:15:36;2.80;;;2.00;;
2996;SDS011;1508;48.744;9.110;2022-07-06T17:18:22;2.23;;;1.67;;
2996;SDS011;1508;48.744;9.110;2022-07-06T17:21:08;2.60;;;1.80;;
2996;SDS011;1508;48.744;9.110;2022-07-06T17:23:54;1.90;;;1.80;;
2996;SDS011;1508;48.744;9.110;2022-07-06T17:26:40;1.90;;;1.43;;
2996;SDS011;1508;48.744;9.110;2022-07-06T17:29:26;3.80;;;1.73;;